Time;durP1;ratioP1;P1;durP2;ratioP2;P2;SDS_P1;SDS_P2;PMS_P1;PMS_P2;Temp;Humidity;BMP_temperature;BMP_pressure;BME280_temperature;BME280_humidity;BME280_pressure;Samples;Min_cycle;Max_cycle;Signal;HPM_P1;HPM_P2
2023/12/08 00:01:33;;;;;;;1.20;1.13;;;5.00;67.40;;;;;;4991787;28;20117;-71
2023/12/08 00:03:59;;;;;;;5.05;1.10;;;5.00;67.40;;;;;;4991763;28;20474;-70
2023/12/08 00:06:24;;;;;;;0.98;0.98;;;5.00;67.50;;;;;;5009093;28;20033;-70
2023/12/08 00:08:50;;;;;;;0.85;0.85;;;5.00;67.50;;;;;;5014758;28;20030;-71
2023/12/08 00:11:15;;;;;;;1.10;1.08;;;5.10;67.50;;;;;;5015276;28;20026;-70
2023/12/08 00:13:41;;;;;;;0.50;0.50;;;5.10;67.50;;;;;;5015493;28;20021;-70
2023/12/08 00:16:08;;;;;;;0.88;0.82;;;5.20;67.50;;;;;;5015179;28;20038;-71
2023/12/08 00:18:34;;;;;;;0.63;0.63;;;5.20;67.50;;;;;;5015408;28;20014;-70
2023/12/08 00:20:59;;;;;;;2.08;1.88;;;5.20;67.50;;;;;;4997651;28;20049;-69
2023/12/08 00:23:25;;;;;;;0.77;0.77;;;5.20;67.50;;;;;;5014988;28;20038;-70
2023/12/08 00:25:50;;;;;;;1.05;1.05;;;5.20;67.50;;;;;;4997537;28;20481;-70
2023/12/08 00:28:16;;;;;;;0.60;0.60;;;5.20;67.50;;;;;;5015038;28;20034;-70
2023/12/08 00:30:42;;;;;;;0.60;0.60;;;5.20;67.40;;;;;;5015372;28;20440;-70
2023/12/08 00:33:07;;;;;;;0.88;0.88;;;5.20;67.50;;;;;;5014939;28;20028;-71
2023/12/08 00:35:33;;;;;;;0.60;0.60;;;5.30;67.40;;;;;;5015553;28;20030;-70
2023/12/08 00:37:58;;;;;;;1.35;1.25;;;5.30;67.40;;;;;;5014802;28;20065;-70
2023/12/08 00:40:24;;;;;;;0.93;0.93;;;5.20;67.40;;;;;;5015167;28;20100;-70
2023/12/08 00:42:49;;;;;;;0.70;0.70;;;5.30;67.30;;;;;;5014806;28;20030;-70
2023/12/08 00:45:15;;;;;;;0.75;0.75;;;5.20;67.20;;;;;;5014915;28;20030;-70
2023/12/08 00:47:41;;;;;;;1.77;1.67;;;5.30;67.10;;;;;;5001815;28;20049;-71
2023/12/08 00:50:07;;;;;;;1.90;1.48;;;5.30;67.20;;;;;;5003850;28;20034;-70
2023/12/08 00:52:33;;;;;;;1.58;1.48;;;5.30;67.00;;;;;;4997373;28;20029;-70
2023/12/08 00:54:58;;;;;;;1.55;1.45;;;5.30;67.10;;;;;;5001829;28;20109;-70
2023/12/08 00:57:24;;;;;;;0.75;0.75;;;5.30;66.90;;;;;;4995025;28;20022;-71
2023/12/08 00:59:49;;;;;;;2.65;1.00;;;5.30;67.00;;;;;;4994977;28;20042;-70
2023/12/08 01:02:15;;;;;;;1.38;1.33;;;5.20;67.00;;;;;;4994731;28;20367;-70
2023/12/08 01:04:41;;;;;;;0.50;0.50;;;5.30;66.90;;;;;;4995013;28;20042;-71
2023/12/08 01:07:08;;;;;;;1.42;1.35;;;5.20;67.00;;;;;;4994890;28;20101;-70
2023/12/08 01:09:33;;;;;;;1.08;0.93;;;5.20;67.00;;;;;;4994848;28;20041;-70
2023/12/08 01:11:59;;;;;;;0.70;0.70;;;5.20;67.10;;;;;;4994453;28;20026;-70
2023/12/08 01:14:24;;;;;;;1.63;1.52;;;5.20;67.10;;;;;;4994906;28;20034;-70
2023/12/08 01:16:49;;;;;;;0.80;0.80;;;5.20;67.10;;;;;;4994599;28;20019;-70
2023/12/08 01:19:15;;;;;;;0.90;0.90;;;5.20;67.10;;;;;;4993488;28;20034;-71
2023/12/08 01:21:40;;;;;;;0.73;0.73;;;5.20;67.20;;;;;;5003002;28;20030;-70
2023/12/08 01:24:06;;;;;;;1.40;1.30;;;5.20;67.20;;;;;;4994816;28;20122;-70
2023/12/08 01:26:32;;;;;;;0.50;0.50;;;5.20;67.10;;;;;;4992956;28;20030;-70
2023/12/08 01:28:57;;;;;;;1.73;1.52;;;5.30;67.10;;;;;;4992893;28;20018;-70
2023/12/08 01:31:23;;;;;;;0.60;0.60;;;5.30;67.10;;;;;;4982592;28;20109;-70
2023/12/08 01:33:48;;;;;;;1.88;1.77;;;5.30;67.20;;;;;;5013814;28;20386;-70
2023/12/08 01:36:14;;;;;;;0.60;0.60;;;5.30;67.20;;;;;;5004488;28;20054;-70
2023/12/08 01:38:46;;;;;;;1.08;1.08;;;5.30;67.30;;;;;;4994107;28;20386;-70
2023/12/08 01:41:13;;;;;;;0.70;0.70;;;5.30;67.30;;;;;;4993564;28;20501;-70
2023/12/08 01:43:39;;;;;;;0.70;0.70;;;5.30;67.30;;;;;;4997611;28;20498;-70
2023/12/08 01:46:05;;;;;;;2.38;1.00;;;5.40;67.30;;;;;;5006601;28;20065;-70
2023/12/08 01:48:31;;;;;;;1.23;1.20;;;5.40;67.50;;;;;;4993828;28;20053;-70
2023/12/08 01:50:57;;;;;;;1.38;1.15;;;5.40;67.60;;;;;;4994166;28;20037;-70
2023/12/08 01:53:23;;;;;;;1.00;1.00;;;5.50;67.60;;;;;;5012322;28;20018;-71
2023/12/08 01:55:48;;;;;;;0.70;0.70;;;5.50;67.60;;;;;;5013980;28;20022;-70
2023/12/08 01:58:14;;;;;;;1.48;1.02;;;5.50;67.70;;;;;;5007621;28;20030;-71
2023/12/08 02:00:41;;;;;;;0.60;0.60;;;5.50;67.70;;;;;;4994408;28;20046;-71
2023/12/08 02:03:07;;;;;;;1.08;1.08;;;5.50;67.60;;;;;;4994070;28;20141;-71
2023/12/08 02:05:36;;;;;;;0.73;0.73;;;5.60;67.60;;;;;;4994182;28;20066;-71
2023/12/08 02:08:02;;;;;;;0.68;0.68;;;5.60;67.60;;;;;;4993963;28;20033;-69
2023/12/08 02:10:28;;;;;;;0.85;0.85;;;5.70;67.60;;;;;;4993854;28;20034;-70
2023/12/08 02:12:53;;;;;;;1.35;1.25;;;5.70;67.70;;;;;;4993890;28;20093;-69
2023/12/08 02:15:19;;;;;;;0.80;0.80;;;5.70;67.60;;;;;;4993725;28;20394;-69
2023/12/08 02:17:45;;;;;;;0.77;0.77;;;5.80;67.60;;;;;;4993491;28;20026;-69
2023/12/08 02:20:11;;;;;;;0.90;0.90;;;5.80;67.70;;;;;;4993654;28;20486;-70
2023/12/08 02:22:37;;;;;;;1.00;0.95;;;5.80;67.80;;;;;;5009282;28;20026;-70
2023/12/08 02:25:03;;;;;;;0.60;0.60;;;5.80;67.70;;;;;;5013170;28;20089;-70
2023/12/08 02:27:29;;;;;;;0.60;0.60;;;5.80;67.80;;;;;;5013120;28;20025;-70
2023/12/08 02:29:55;;;;;;;1.60;1.50;;;5.80;67.80;;;;;;5012802;28;20101;-70
2023/12/08 02:32:42;;;;;;;1.15;1.05;;;5.90;67.60;;;;;;4995053;28;20036;-70
2023/12/08 02:35:09;;;;;;;0.68;0.68;;;5.90;67.80;;;;;;5012877;28;20041;-70
2023/12/08 02:37:36;;;;;;;0.60;0.60;;;5.80;67.60;;;;;;5012733;28;20028;-70
2023/12/08 02:40:06;;;;;;;1.48;1.38;;;5.90;67.80;;;;;;5013147;28;20049;-70
2023/12/08 02:42:32;;;;;;;2.80;2.60;;;5.90;67.90;;;;;;5012888;28;20025;-70
2023/12/08 02:44:57;;;;;;;3.63;1.05;;;5.90;67.80;;;;;;5012617;28;20049;-70
2023/12/08 02:47:23;;;;;;;0.65;0.65;;;5.90;67.90;;;;;;5012581;28;20025;-70
2023/12/08 02:49:48;;;;;;;1.05;1.05;;;5.90;67.90;;;;;;5012669;28;20428;-70
2023/12/08 02:52:14;;;;;;;0.70;0.70;;;6.00;68.00;;;;;;5012450;28;20038;-71
2023/12/08 02:54:40;;;;;;;0.73;0.73;;;6.00;67.90;;;;;;5012517;28;20108;-71
2023/12/08 02:57:05;;;;;;;0.47;0.47;;;6.00;67.90;;;;;;4995294;28;20104;-71
2023/12/08 02:59:31;;;;;;;1.10;1.10;;;6.00;67.90;;;;;;5012364;28;20054;-70
2023/12/08 03:01:56;;;;;;;0.90;0.90;;;6.00;67.90;;;;;;5012200;28;20117;-70
2023/12/08 03:04:22;;;;;;;0.88;0.88;;;6.00;67.90;;;;;;4994738;28;20034;-70
2023/12/08 03:06:47;;;;;;;1.27;1.20;;;6.10;68.00;;;;;;5012362;28;20030;-70
2023/12/08 03:09:14;;;;;;;0.73;0.73;;;6.10;68.00;;;;;;5012303;28;20553;-70
2023/12/08 03:11:39;;;;;;;1.48;1.38;;;6.10;68.10;;;;;;5012420;28;20033;-70
2023/12/08 03:14:05;;;;;;;1.15;1.15;;;6.10;68.30;;;;;;5012103;28;20389;-70
2023/12/08 03:16:31;;;;;;;1.08;1.02;;;6.20;68.30;;;;;;5012078;28;20024;-70
2023/12/08 03:18:56;;;;;;;1.40;1.30;;;6.20;68.20;;;;;;5012076;28;20033;-70
2023/12/08 03:21:23;;;;;;;0.85;0.85;;;6.30;68.40;;;;;;5006600;28;20109;-70
2023/12/08 03:23:48;;;;;;;0.90;0.90;;;6.30;68.20;;;;;;4992324;28;20385;-70
2023/12/08 03:26:14;;;;;;;1.33;1.23;;;6.30;68.30;;;;;;4992705;28;20109;-70
2023/12/08 03:28:40;;;;;;;0.80;0.80;;;6.40;68.20;;;;;;4992726;28;20034;-70
2023/12/08 03:31:05;;;;;;;1.27;1.17;;;6.40;68.20;;;;;;4992874;28;20064;-70
2023/12/08 03:33:31;;;;;;;0.88;0.88;;;6.40;68.10;;;;;;4974819;28;20058;-70
2023/12/08 03:35:56;;;;;;;1.70;1.60;;;6.50;68.30;;;;;;4992941;28;20049;-70
2023/12/08 03:38:22;;;;;;;0.70;0.70;;;6.50;68.40;;;;;;4992044;28;20069;-70
2023/12/08 03:40:47;;;;;;;0.50;0.50;;;6.50;68.30;;;;;;4992724;28;20076;-70
2023/12/08 03:43:13;;;;;;;1.02;1.02;;;6.60;68.30;;;;;;4991885;28;20492;-70
2023/12/08 03:45:38;;;;;;;1.00;1.00;;;6.60;68.20;;;;;;4992488;28;20038;-70
2023/12/08 03:48:04;;;;;;;0.73;0.73;;;6.60;68.30;;;;;;4992116;28;20062;-70
2023/12/08 03:50:29;;;;;;;0.52;0.52;;;6.60;68.40;;;;;;4992339;28;20078;-70
2023/12/08 03:52:56;;;;;;;1.20;1.15;;;6.60;68.50;;;;;;4992139;28;20545;-70
2023/12/08 03:55:22;;;;;;;1.02;1.02;;;6.70;68.70;;;;;;4992479;28;20030;-70
2023/12/08 03:57:48;;;;;;;1.20;1.10;;;6.70;68.80;;;;;;4992311;28;20084;-70
2023/12/08 04:00:14;;;;;;;0.57;0.57;;;6.70;68.40;;;;;;4992500;28;20030;-70
2023/12/08 04:02:40;;;;;;;0.70;0.70;;;6.70;68.30;;;;;;4992008;28;20034;-70
2023/12/08 04:05:05;;;;;;;1.05;1.05;;;6.70;68.30;;;;;;4992084;28;20034;-70
2023/12/08 04:07:31;;;;;;;1.20;1.10;;;6.70;68.30;;;;;;4992070;28;20034;-71
2023/12/08 04:09:56;;;;;;;0.68;0.68;;;6.70;68.30;;;;;;4992075;28;20038;-70
2023/12/08 04:12:22;;;;;;;0.55;0.55;;;6.80;68.40;;;;;;4992092;28;20031;-71
2023/12/08 04:14:48;;;;;;;0.45;0.45;;;6.80;68.50;;;;;;4991994;28;20038;-70
2023/12/08 04:17:13;;;;;;;1.27;1.20;;;6.80;68.20;;;;;;4991880;28;20030;-70
2023/12/08 04:19:39;;;;;;;0.98;0.98;;;6.80;68.30;;;;;;4991856;28;20038;-70
2023/12/08 04:22:04;;;;;;;0.68;0.68;;;6.80;68.30;;;;;;4991680;28;20478;-70
2023/12/08 04:24:30;;;;;;;1.45;1.35;;;6.90;68.40;;;;;;4991887;28;20449;-70
2023/12/08 04:26:55;;;;;;;1.95;1.63;;;7.00;68.40;;;;;;4991907;28;20026;-70
2023/12/08 04:29:21;;;;;;;0.70;0.70;;;6.90;68.30;;;;;;4991649;28;20082;-70
2023/12/08 04:31:46;;;;;;;0.60;0.60;;;7.00;68.00;;;;;;4991509;28;20037;-70
2023/12/08 04:34:12;;;;;;;1.60;0.82;;;7.00;68.10;;;;;;4991343;28;20577;-70
2023/12/08 04:36:38;;;;;;;0.70;0.70;;;7.00;68.00;;;;;;4991362;28;20034;-70
2023/12/08 04:39:04;;;;;;;1.27;1.13;;;7.00;68.00;;;;;;4991416;28;20561;-70
2023/12/08 04:41:29;;;;;;;0.60;0.60;;;7.00;68.20;;;;;;4983554;28;20031;-70
2023/12/08 04:43:55;;;;;;;0.50;0.50;;;7.00;68.10;;;;;;4973517;28;20023;-70
2023/12/08 04:46:20;;;;;;;0.60;0.60;;;7.00;68.00;;;;;;4989967;28;20057;-69
2023/12/08 04:48:46;;;;;;;0.82;0.82;;;7.00;68.30;;;;;;4991156;28;20026;-70
2023/12/08 04:51:11;;;;;;;0.60;0.60;;;7.00;68.20;;;;;;4989518;28;20065;-70
2023/12/08 04:53:37;;;;;;;2.05;1.02;;;7.10;68.00;;;;;;4991217;28;20546;-70
2023/12/08 04:56:03;;;;;;;0.70;0.70;;;7.00;68.00;;;;;;4995644;28;20037;-70
2023/12/08 04:58:28;;;;;;;1.27;1.25;;;7.10;68.20;;;;;;4992577;28;20117;-70
2023/12/08 05:00:56;;;;;;;1.42;1.33;;;7.00;68.40;;;;;;4976435;28;20046;-70
2023/12/08 05:03:25;;;;;;;1.55;1.45;;;7.10;68.30;;;;;;4994849;28;20033;-71
2023/12/08 05:05:50;;;;;;;0.95;0.93;;;7.10;68.10;;;;;;4994280;28;20120;-70
2023/12/08 05:08:16;;;;;;;1.08;1.08;;;7.10;68.00;;;;;;4994146;28;20038;-71
2023/12/08 05:10:41;;;;;;;0.60;0.60;;;7.10;68.00;;;;;;4994275;28;20042;-70
2023/12/08 05:13:07;;;;;;;2.00;1.63;;;7.10;68.00;;;;;;4992522;28;20033;-72
2023/12/08 05:15:32;;;;;;;0.50;0.50;;;7.00;67.90;;;;;;4995129;28;20069;-71
2023/12/08 05:17:58;;;;;;;0.50;0.50;;;7.00;68.00;;;;;;4991724;28;20441;-71
2023/12/08 05:20:23;;;;;;;0.57;0.57;;;7.00;67.80;;;;;;4993714;28;20030;-71
2023/12/08 05:22:48;;;;;;;0.47;0.47;;;7.00;67.90;;;;;;4993561;28;20473;-71
2023/12/08 05:25:14;;;;;;;1.42;1.35;;;6.90;68.00;;;;;;4994496;28;20035;-70
2023/12/08 05:27:40;;;;;;;1.00;1.00;;;6.90;68.00;;;;;;4993510;28;20478;-70
2023/12/08 05:30:06;;;;;;;0.70;0.70;;;6.90;68.10;;;;;;4994814;28;20022;-70
2023/12/08 05:32:31;;;;;;;0.60;0.60;;;6.90;68.20;;;;;;4975245;28;20030;-70
2023/12/08 05:34:57;;;;;;;0.50;0.50;;;6.90;68.20;;;;;;4999428;28;20505;-70
2023/12/08 05:37:22;;;;;;;0.65;0.65;;;6.90;68.20;;;;;;4991520;28;20561;-70
2023/12/08 05:39:48;;;;;;;1.02;1.02;;;6.90;68.30;;;;;;4993515;28;20053;-70
2023/12/08 05:42:13;;;;;;;1.50;1.40;;;6.80;68.40;;;;;;4994150;28;20102;-70
2023/12/08 05:44:39;;;;;;;0.50;0.50;;;6.90;68.20;;;;;;4994351;28;20173;-70
2023/12/08 05:47:04;;;;;;;0.75;0.75;;;6.80;68.10;;;;;;4976993;28;20018;-69
2023/12/08 05:49:30;;;;;;;0.50;0.50;;;6.80;68.00;;;;;;4994172;28;20169;-70
2023/12/08 05:51:55;;;;;;;0.50;0.50;;;6.80;68.20;;;;;;4993917;28;20397;-70
2023/12/08 05:54:21;;;;;;;0.50;0.50;;;6.80;68.10;;;;;;4994155;28;20045;-70
2023/12/08 05:56:48;;;;;;;2.20;0.75;;;6.80;68.20;;;;;;4993812;28;20557;-70
2023/12/08 05:59:14;;;;;;;1.17;1.05;;;6.80;68.30;;;;;;4993751;28;20042;-70
2023/12/08 06:01:39;;;;;;;0.60;0.60;;;6.80;68.50;;;;;;4993942;28;20045;-69
2023/12/08 06:04:05;;;;;;;0.88;0.88;;;6.80;68.40;;;;;;4993876;28;20030;-69
2023/12/08 06:06:32;;;;;;;0.80;0.80;;;6.80;68.70;;;;;;4993184;28;20048;-70
2023/12/08 06:08:57;;;;;;;2.08;1.98;;;6.80;68.80;;;;;;4993627;28;20034;-70
2023/12/08 06:11:23;;;;;;;1.33;1.25;;;6.90;69.00;;;;;;4993491;28;20045;-69
2023/12/08 06:13:48;;;;;;;0.75;0.75;;;6.90;68.90;;;;;;4993386;28;20022;-69
2023/12/08 06:16:13;;;;;;;1.83;1.65;;;7.00;69.10;;;;;;4993712;28;20462;-69
2023/12/08 06:18:40;;;;;;;0.65;0.65;;;7.00;69.10;;;;;;4993698;28;20027;-69
2023/12/08 06:21:06;;;;;;;0.60;0.60;;;7.00;69.00;;;;;;4993755;28;20066;-70
2023/12/08 06:23:31;;;;;;;0.60;0.60;;;7.00;68.90;;;;;;4993524;28;20050;-70
2023/12/08 06:25:57;;;;;;;0.50;0.50;;;7.10;68.80;;;;;;4993480;28;20454;-70
2023/12/08 06:28:22;;;;;;;1.45;1.10;;;7.10;68.60;;;;;;4975963;28;20034;-69
2023/12/08 06:30:48;;;;;;;1.15;1.10;;;7.10;68.70;;;;;;4993688;28;20038;-70
2023/12/08 06:33:13;;;;;;;0.50;0.50;;;7.10;68.80;;;;;;4993655;28;20030;-70
2023/12/08 06:35:39;;;;;;;0.47;0.47;;;7.20;68.70;;;;;;4993545;28;20133;-70
2023/12/08 06:38:04;;;;;;;1.10;1.10;;;7.20;69.10;;;;;;4992915;28;20027;-70
2023/12/08 06:40:30;;;;;;;1.33;1.23;;;7.20;68.90;;;;;;4993346;28;20102;-69
2023/12/08 06:42:55;;;;;;;0.50;0.50;;;7.20;69.00;;;;;;4975656;28;20023;-70
2023/12/08 06:45:21;;;;;;;0.50;0.50;;;7.20;69.00;;;;;;4993525;28;20038;-70
2023/12/08 06:47:46;;;;;;;0.82;0.82;;;7.20;68.90;;;;;;4993006;28;20030;-69
2023/12/08 06:50:12;;;;;;;0.70;0.70;;;7.20;68.60;;;;;;4993026;28;20088;-69
2023/12/08 06:52:37;;;;;;;0.60;0.60;;;7.20;68.40;;;;;;4992677;28;20109;-70
2023/12/08 06:55:03;;;;;;;0.80;0.80;;;7.10;68.30;;;;;;4993071;28;20041;-70
2023/12/08 06:57:29;;;;;;;0.73;0.73;;;7.10;68.30;;;;;;4992629;28;20033;-71
2023/12/08 06:59:54;;;;;;;0.50;0.50;;;7.00;68.30;;;;;;4992840;28;20104;-70
2023/12/08 07:02:20;;;;;;;0.50;0.50;;;7.00;68.30;;;;;;4992600;28;20034;-71
2023/12/08 07:04:45;;;;;;;1.13;1.13;;;6.90;68.20;;;;;;4992797;28;20034;-70
2023/12/08 07:07:11;;;;;;;0.93;0.93;;;6.90;68.10;;;;;;4992604;28;20030;-71
2023/12/08 07:09:37;;;;;;;0.40;0.40;;;6.80;68.30;;;;;;4992509;28;20046;-71
2023/12/08 07:12:03;;;;;;;0.50;0.50;;;6.70;68.30;;;;;;4992326;28;20105;-72
2023/12/08 07:14:28;;;;;;;0.43;0.43;;;6.70;68.50;;;;;;4992827;28;20389;-71
2023/12/08 07:16:54;;;;;;;0.60;0.60;;;6.70;68.60;;;;;;4991719;28;20038;-72
2023/12/08 07:19:19;;;;;;;0.55;0.55;;;6.70;68.60;;;;;;4991089;28;20037;-71
2023/12/08 07:21:45;;;;;;;0.50;0.50;;;6.70;68.80;;;;;;4992280;28;20101;-71
2023/12/08 07:24:11;;;;;;;0.57;0.57;;;6.60;68.80;;;;;;4992083;28;20031;-71
2023/12/08 07:26:37;;;;;;;0.60;0.60;;;6.60;68.90;;;;;;4992198;28;20135;-71
2023/12/08 07:29:03;;;;;;;0.50;0.50;;;6.60;69.00;;;;;;4992161;28;20113;-72
2023/12/08 07:31:28;;;;;;;3.03;2.05;;;6.60;69.00;;;;;;4992336;28;20042;-72
2023/12/08 07:33:55;;;;;;;1.13;0.95;;;6.60;69.10;;;;;;4992162;28;20399;-72
2023/12/08 07:36:21;;;;;;;0.47;0.47;;;6.60;69.30;;;;;;4992069;28;20037;-72
2023/12/08 07:38:46;;;;;;;1.15;1.05;;;6.60;69.30;;;;;;4974506;28;20018;-71
2023/12/08 07:41:13;;;;;;;0.52;0.52;;;6.60;69.30;;;;;;4974591;28;20028;-71
2023/12/08 07:43:39;;;;;;;1.52;1.35;;;6.70;69.40;;;;;;4992000;28;20026;-71
2023/12/08 07:46:05;;;;;;;0.43;0.43;;;6.60;69.40;;;;;;4992647;28;20034;-71
2023/12/08 07:48:30;;;;;;;0.50;0.50;;;6.60;69.50;;;;;;4991990;28;20422;-71
2023/12/08 07:50:56;;;;;;;1.33;1.23;;;6.60;69.60;;;;;;4992201;28;20042;-71
2023/12/08 07:53:22;;;;;;;0.60;0.60;;;6.70;69.60;;;;;;4992003;28;20097;-71
2023/12/08 07:55:47;;;;;;;1.00;1.00;;;6.70;69.70;;;;;;4992158;28;20496;-71
2023/12/08 07:58:14;;;;;;;1.88;1.70;;;6.70;69.70;;;;;;4991726;28;20066;-71
2023/12/08 08:00:39;;;;;;;0.50;0.50;;;6.70;69.50;;;;;;4992177;28;20030;-72
2023/12/08 08:03:05;;;;;;;0.68;0.68;;;6.70;69.60;;;;;;4991790;28;20027;-71
2023/12/08 08:05:30;;;;;;;1.13;1.08;;;6.70;69.60;;;;;;4992072;28;20034;-71
2023/12/08 08:07:56;;;;;;;0.57;0.57;;;6.80;69.50;;;;;;4992868;28;20030;-75
2023/12/08 08:10:22;;;;;;;3.20;1.98;;;6.70;69.60;;;;;;4994192;28;20042;-74
2023/12/08 08:12:47;;;;;;;0.40;0.40;;;6.70;69.60;;;;;;4994123;28;20080;-75
2023/12/08 08:15:13;;;;;;;0.85;0.85;;;6.70;69.70;;;;;;4993908;28;20030;-75
2023/12/08 08:17:38;;;;;;;0.50;0.50;;;6.70;69.80;;;;;;4994613;28;20101;-75
2023/12/08 08:20:05;;;;;;;0.88;0.88;;;6.70;69.50;;;;;;4994143;28;20043;-76
2023/12/08 08:22:31;;;;;;;0.60;0.60;;;6.80;69.60;;;;;;4993274;28;20042;-75
2023/12/08 08:24:57;;;;;;;0.55;0.55;;;6.80;69.80;;;;;;4998533;28;20053;-74
2023/12/08 08:27:22;;;;;;;0.57;0.57;;;6.80;69.70;;;;;;4999586;28;20026;-75
2023/12/08 08:29:48;;;;;;;0.50;0.50;;;6.80;69.70;;;;;;5003862;28;20057;-75
2023/12/08 08:32:17;;;;;;;0.70;0.70;;;6.80;69.60;;;;;;5003338;28;20042;-75
2023/12/08 08:34:43;;;;;;;0.80;0.80;;;6.80;69.70;;;;;;5001575;28;20450;-75
2023/12/08 08:37:08;;;;;;;1.17;1.13;;;6.80;69.70;;;;;;5001831;28;20386;-75
2023/12/08 08:39:34;;;;;;;0.70;0.70;;;6.80;69.60;;;;;;5003041;28;20042;-75
2023/12/08 08:41:59;;;;;;;0.60;0.60;;;6.80;69.60;;;;;;5003323;28;20037;-74
2023/12/08 08:44:26;;;;;;;1.10;1.02;;;6.80;69.60;;;;;;5009056;28;20406;-74
2023/12/08 08:46:52;;;;;;;0.50;0.50;;;6.80;69.70;;;;;;4993483;28;20030;-74
2023/12/08 08:49:17;;;;;;;1.23;1.20;;;6.80;69.70;;;;;;5013927;28;20050;-75
2023/12/08 08:51:44;;;;;;;1.75;1.25;;;6.80;69.50;;;;;;5016185;28;20041;-74
2023/12/08 08:54:13;;;;;;;1.45;1.35;;;6.80;69.50;;;;;;5016872;28;20045;-74
2023/12/08 08:56:38;;;;;;;0.50;0.50;;;6.80;69.60;;;;;;5017299;28;20081;-74
2023/12/08 08:59:04;;;;;;;1.15;1.15;;;6.80;69.60;;;;;;5015540;28;20039;-74
2023/12/08 09:01:29;;;;;;;0.98;0.98;;;6.80;69.40;;;;;;5015087;28;20035;-75
2023/12/08 09:03:55;;;;;;;0.95;0.95;;;6.80;69.30;;;;;;5015174;28;20030;-74
2023/12/08 09:06:20;;;;;;;1.95;0.98;;;6.80;69.40;;;;;;5017783;28;20038;-73
2023/12/08 09:08:46;;;;;;;0.63;0.63;;;6.80;69.40;;;;;;5015839;28;20030;-74
2023/12/08 09:11:12;;;;;;;0.60;0.60;;;6.80;69.40;;;;;;5017180;28;20041;-73
2023/12/08 09:13:37;;;;;;;1.23;0.75;;;6.80;69.60;;;;;;5017727;28;20082;-73
2023/12/08 09:16:04;;;;;;;0.50;0.50;;;6.80;69.60;;;;;;5016268;28;20038;-73
2023/12/08 09:18:29;;;;;;;1.08;1.05;;;6.90;69.80;;;;;;5015587;28;20027;-73
2023/12/08 09:20:55;;;;;;;1.05;1.05;;;6.90;70.00;;;;;;5016774;28;20054;-73
2023/12/08 09:23:20;;;;;;;0.80;0.80;;;7.00;70.10;;;;;;5011863;28;20038;-73
2023/12/08 09:25:47;;;;;;;0.95;0.95;;;7.00;70.10;;;;;;5006854;28;20030;-73
2023/12/08 09:28:13;;;;;;;0.60;0.60;;;7.10;69.80;;;;;;5003870;28;20022;-73
2023/12/08 09:30:38;;;;;;;0.80;0.80;;;7.10;69.90;;;;;;4984476;28;20037;-73
2023/12/08 09:33:04;;;;;;;1.05;1.00;;;7.10;69.90;;;;;;5000481;28;20042;-73
2023/12/08 09:35:30;;;;;;;0.45;0.45;;;7.20;70.00;;;;;;4999731;28;20034;-73
2023/12/08 09:37:55;;;;;;;0.93;0.93;;;7.20;70.00;;;;;;5000539;28;20072;-71
2023/12/08 09:40:23;;;;;;;0.50;0.50;;;7.20;70.00;;;;;;4993330;28;20085;-70
2023/12/08 09:43:06;;;;;;;0.60;0.60;;;7.20;70.10;;;;;;4994549;28;20113;-71
2023/12/08 09:45:32;;;;;;;0.55;0.55;;;7.30;70.40;;;;;;4994327;28;20073;-72
2023/12/08 09:47:59;;;;;;;0.80;0.80;;;7.30;70.10;;;;;;4994701;28;20034;-72
2023/12/08 09:50:26;;;;;;;1.00;0.93;;;7.30;70.10;;;;;;4993965;28;20049;-71
2023/12/08 09:52:53;;;;;;;0.70;0.70;;;7.40;70.00;;;;;;4994095;28;20510;-70
2023/12/08 09:55:20;;;;;;;0.57;0.57;;;7.40;70.00;;;;;;4993893;28;20466;-71
2023/12/08 09:57:48;;;;;;;0.70;0.70;;;7.50;70.00;;;;;;4994086;28;20077;-71
2023/12/08 10:00:15;;;;;;;0.52;0.52;;;7.50;70.00;;;;;;4993894;28;20035;-71
2023/12/08 10:02:41;;;;;;;2.20;1.15;;;7.50;70.00;;;;;;4994258;28;20058;-72
2023/12/08 10:05:10;;;;;;;0.82;0.82;;;7.60;70.20;;;;;;4993643;28;20038;-71
2023/12/08 10:07:39;;;;;;;0.52;0.52;;;7.70;70.10;;;;;;4994078;28;20026;-72
2023/12/08 10:10:05;;;;;;;0.80;0.80;;;7.70;70.30;;;;;;4994075;28;20089;-71
2023/12/08 10:12:30;;;;;;;0.47;0.47;;;7.70;70.30;;;;;;4993971;28;20081;-72
2023/12/08 10:14:57;;;;;;;1.15;0.98;;;7.70;70.30;;;;;;4976208;28;20478;-71
2023/12/08 10:17:24;;;;;;;0.85;0.85;;;7.70;70.20;;;;;;4993465;28;20023;-71
2023/12/08 10:19:52;;;;;;;0.60;0.60;;;7.70;70.20;;;;;;4993568;28;20611;-72
2023/12/08 10:22:18;;;;;;;0.55;0.55;;;7.70;70.10;;;;;;4993638;28;20033;-71
2023/12/08 10:24:45;;;;;;;0.63;0.63;;;7.80;70.00;;;;;;4993462;28;20034;-71
2023/12/08 10:27:10;;;;;;;0.50;0.50;;;7.70;70.00;;;;;;4993674;28;20038;-72
2023/12/08 10:29:36;;;;;;;0.50;0.50;;;7.80;69.80;;;;;;4993552;28;20046;-71
2023/12/08 10:32:04;;;;;;;1.05;1.05;;;7.70;69.60;;;;;;4993426;28;20490;-71
2023/12/08 10:34:30;;;;;;;0.60;0.60;;;7.70;69.70;;;;;;4993316;28;20089;-71
2023/12/08 10:36:56;;;;;;;1.30;1.20;;;7.70;69.70;;;;;;4993481;28;20030;-71
2023/12/08 10:39:23;;;;;;;0.65;0.65;;;7.70;69.70;;;;;;4993046;28;20053;-71
2023/12/08 10:41:50;;;;;;;0.70;0.70;;;7.70;69.80;;;;;;4993316;28;20109;-71
2023/12/08 10:44:22;;;;;;;0.52;0.52;;;7.70;69.90;;;;;;4992899;28;20033;-69
2023/12/08 10:46:48;;;;;;;0.90;0.90;;;7.70;69.70;;;;;;4975471;28;20433;-70
2023/12/08 10:49:21;;;;;;;2.03;1.88;;;7.70;69.60;;;;;;4992997;28;20033;-69
2023/12/08 10:51:47;;;;;;;0.50;0.50;;;7.70;69.70;;;;;;4992951;28;20027;-69
2023/12/08 10:54:17;;;;;;;0.77;0.77;;;7.70;70.00;;;;;;4992830;28;20108;-70
2023/12/08 10:56:44;;;;;;;0.57;0.57;;;7.70;70.10;;;;;;4992938;28;20363;-70
2023/12/08 10:59:11;;;;;;;0.50;0.50;;;7.80;70.00;;;;;;4992849;28;20083;-69
2023/12/08 11:01:37;;;;;;;0.75;0.75;;;7.80;69.90;;;;;;4975228;28;20034;-71
2023/12/08 11:04:10;;;;;;;0.75;0.75;;;7.80;70.10;;;;;;4992715;28;20065;-71
2023/12/08 11:06:42;;;;;;;0.43;0.43;;;7.80;70.10;;;;;;4992688;28;20101;-71
2023/12/08 11:09:12;;;;;;;1.27;1.23;;;7.90;70.00;;;;;;4993331;28;20026;-71
2023/12/08 11:11:47;;;;;;;0.95;0.88;;;7.90;69.90;;;;;;4992634;28;20038;-71
2023/12/08 11:14:38;;;;;;;0.70;0.70;;;7.90;69.80;;;;;;4992720;28;20023;-71
2023/12/08 11:17:19;;;;;;;1.08;1.05;;;7.90;70.00;;;;;;4992208;28;20439;-71
2023/12/08 11:19:45;;;;;;;4.60;2.65;;;7.90;69.80;;;;;;4996156;28;20109;-73
2023/12/08 11:22:12;;;;;;;0.95;0.95;;;7.90;69.70;;;;;;4996734;28;20038;-73
2023/12/08 11:24:39;;;;;;;1.90;1.80;;;7.90;69.80;;;;;;4996749;28;20503;-73
2023/12/08 11:27:21;;;;;;;1.83;1.73;;;7.90;69.90;;;;;;4997356;28;20084;-73
2023/12/08 11:29:54;;;;;;;0.50;0.50;;;7.90;69.80;;;;;;4996945;28;20421;-73
2023/12/08 11:32:41;;;;;;;1.20;1.15;;;7.90;69.80;;;;;;4996994;28;20034;-73
2023/12/08 11:35:12;;;;;;;0.50;0.50;;;7.90;69.80;;;;;;4996133;28;20029;-73
2023/12/08 11:37:39;;;;;;;2.55;2.33;;;7.90;69.80;;;;;;4996190;28;20512;-73
2023/12/08 11:40:07;;;;;;;0.70;0.70;;;7.90;69.90;;;;;;4995434;28;20029;-72
2023/12/08 11:42:33;;;;;;;1.02;0.98;;;8.00;69.70;;;;;;4995684;28;20041;-72
2023/12/08 11:44:59;;;;;;;0.50;0.50;;;7.90;69.90;;;;;;4995445;28;20061;-72
2023/12/08 11:47:26;;;;;;;0.85;0.85;;;8.00;70.10;;;;;;4995589;28;20035;-72
2023/12/08 11:49:54;;;;;;;0.82;0.82;;;8.00;70.00;;;;;;4995159;28;20101;-72
2023/12/08 11:52:25;;;;;;;0.50;0.50;;;8.00;70.00;;;;;;4995639;28;20386;-73
2023/12/08 11:55:00;;;;;;;0.55;0.55;;;8.00;69.90;;;;;;4995939;28;20019;-73
2023/12/08 11:57:27;;;;;;;0.75;0.75;;;8.10;70.00;;;;;;4994039;28;20058;-73
2023/12/08 11:59:54;;;;;;;0.45;0.45;;;8.00;70.00;;;;;;4995442;28;20563;-72
2023/12/08 12:02:20;;;;;;;0.50;0.50;;;8.10;70.10;;;;;;4995228;28;20084;-73
2023/12/08 12:04:48;;;;;;;0.55;0.55;;;8.10;69.90;;;;;;4994644;28;20493;-72
2023/12/08 12:07:18;;;;;;;0.82;0.82;;;8.10;69.80;;;;;;4993770;28;20108;-71
2023/12/08 12:09:46;;;;;;;0.70;0.70;;;8.10;69.80;;;;;;4991944;28;20038;-71
2023/12/08 12:12:18;;;;;;;0.50;0.50;;;8.10;69.90;;;;;;4991536;28;20030;-71
2023/12/08 12:14:46;;;;;;;0.52;0.52;;;8.10;69.80;;;;;;4991771;28;20113;-71
2023/12/08 12:17:13;;;;;;;0.75;0.73;;;8.10;69.70;;;;;;4991955;28;20032;-70
2023/12/08 12:19:39;;;;;;;0.65;0.65;;;8.10;69.70;;;;;;4991688;28;20077;-70
2023/12/08 12:22:05;;;;;;;0.98;0.93;;;8.10;69.70;;;;;;4991884;28;20037;-71
2023/12/08 12:24:31;;;;;;;0.50;0.50;;;8.10;69.90;;;;;;4991587;28;20105;-71
2023/12/08 12:26:57;;;;;;;0.50;0.50;;;8.20;70.00;;;;;;4991771;28;20038;-71
2023/12/08 12:29:23;;;;;;;0.70;0.70;;;8.20;70.00;;;;;;4991724;28;20089;-71
2023/12/08 12:31:49;;;;;;;0.70;0.70;;;8.20;69.90;;;;;;4991760;28;20034;-71
2023/12/08 12:34:15;;;;;;;0.50;0.50;;;8.20;70.00;;;;;;4991696;28;20022;-70
2023/12/08 12:36:41;;;;;;;0.57;0.57;;;8.20;70.10;;;;;;4991727;28;20045;-71
2023/12/08 12:39:07;;;;;;;1.77;1.60;;;8.20;70.10;;;;;;4991458;28;20038;-71
2023/12/08 12:41:33;;;;;;;0.43;0.43;;;8.30;70.20;;;;;;4991558;28;20493;-70
2023/12/08 12:44:01;;;;;;;0.50;0.50;;;8.30;70.00;;;;;;4992667;28;20118;-72
2023/12/08 12:46:27;;;;;;;0.47;0.47;;;8.30;69.90;;;;;;4995432;28;20089;-71
2023/12/08 12:48:54;;;;;;;0.57;0.57;;;8.40;69.70;;;;;;4992082;28;20045;-70
2023/12/08 12:51:36;;;;;;;5.25;1.63;;;8.30;69.80;;;;;;4991597;28;20037;-70
2023/12/08 12:54:05;;;;;;;0.60;0.60;;;8.30;69.70;;;;;;4991407;28;20038;-71